createdAt,value
2019-04-10T00:00:39.145Z,35.98
2019-04-10T00:03:24.025Z,42.03
2019-04-10T00:05:45.160Z,37.65
2019-04-10T00:08:18.130Z,41.90
2019-04-10T00:10:50.552Z,42.78
2019-04-10T00:13:22.900Z,39.88
2019-04-10T00:15:56.937Z,43.83
2019-04-10T00:18:29.743Z,37.73
2019-04-10T00:21:03.181Z,41.63
2019-04-10T00:23:35.694Z,44.88
2019-04-10T00:26:08.332Z,39.65
2019-04-10T00:28:41.330Z,37.98
2019-04-10T00:31:13.848Z,38.45
2019-04-10T00:33:47.151Z,42.95
2019-04-10T00:36:20.307Z,47.62
2019-04-10T00:38:53.658Z,43.80
2019-04-10T00:41:26.563Z,43.08
2019-04-10T00:43:59.375Z,43.60
2019-04-10T00:46:32.527Z,37.10
2019-04-10T00:49:05.158Z,39.45
2019-04-10T00:51:37.800Z,44.20
2019-04-10T00:54:11.870Z,41.45
2019-04-10T00:56:45.190Z,40.75
2019-04-10T00:59:17.947Z,41.48
2019-04-10T01:01:50.325Z,40.85
2019-04-10T01:04:22.799Z,41.10
2019-04-10T01:06:56.607Z,39.00
2019-04-10T01:09:29.541Z,35.50
2019-04-10T01:12:02.325Z,47.33
2019-04-10T01:14:35.869Z,38.10
2019-04-10T01:17:08.492Z,35.68
2019-04-10T01:19:41.857Z,37.25
2019-04-10T01:22:15.229Z,34.40
2019-04-10T01:24:48.046Z,36.55
2019-04-10T01:27:21.055Z,32.25
2019-04-10T01:29:53.736Z,32.63
2019-04-10T01:32:26.376Z,34.10
2019-04-10T01:34:58.888Z,31.35
2019-04-10T01:37:45.212Z,33.95
2019-04-10T01:40:08.233Z,33.85
2019-04-10T01:42:40.922Z,35.95
2019-04-10T01:45:13.562Z,31.17
2019-04-10T01:47:46.148Z,33.83
2019-04-10T01:50:20.020Z,33.48
2019-04-10T01:52:53.412Z,33.42
2019-04-10T01:55:29.873Z,32.95
2019-04-10T01:58:01.669Z,32.53
2019-04-10T02:00:35.681Z,32.08
2019-04-10T02:03:09.733Z,37.33
2019-04-10T02:05:43.193Z,33.42
2019-04-10T02:08:17.493Z,35.33
2019-04-10T02:10:50.166Z,33.10
2019-04-10T02:13:23.325Z,33.23
2019-04-10T02:15:56.553Z,32.00
2019-04-10T02:18:30.488Z,31.45
2019-04-10T02:21:03.346Z,30.10
2019-04-10T02:23:36.523Z,32.73
2019-04-10T02:26:09.530Z,33.18
2019-04-10T02:28:42.954Z,32.98
2019-04-10T02:31:15.480Z,31.20
2019-04-10T02:33:49.535Z,30.95
2019-04-10T02:36:23.410Z,31.80
2019-04-10T02:39:08.821Z,30.57
2019-04-10T02:41:29.881Z,29.60
2019-04-10T02:44:02.986Z,28.85
2019-04-10T02:46:36.927Z,24.47
2019-04-10T02:49:09.606Z,26.65
2019-04-10T02:51:43.292Z,26.68
2019-04-10T02:54:17.427Z,25.85
2019-04-10T02:56:49.623Z,24.60
2019-04-10T02:59:23.409Z,26.97
2019-04-10T03:01:57.824Z,27.60
2019-04-10T03:04:31.112Z,30.97
2019-04-10T03:07:04.279Z,22.42
2019-04-10T03:09:53.510Z,24.05
2019-04-10T03:12:12.535Z,26.68
2019-04-10T03:14:45.892Z,24.82
2019-04-10T03:17:18.433Z,26.73
2019-04-10T03:19:51.693Z,26.85
2019-04-10T03:22:24.962Z,24.30
2019-04-10T03:24:58.135Z,25.92
2019-04-10T03:27:30.557Z,24.67
2019-04-10T03:30:05.020Z,25.60
2019-04-10T03:32:41.667Z,27.87
2019-04-10T03:35:14.547Z,26.20
2019-04-10T03:37:46.996Z,25.15
2019-04-10T03:40:19.536Z,28.00
2019-04-10T03:42:51.700Z,25.80
2019-04-10T03:45:24.451Z,26.60
2019-04-10T03:47:57.868Z,23.62
2019-04-10T03:50:31.947Z,22.22
2019-04-10T03:53:05.303Z,20.65
2019-04-10T03:55:38.021Z,21.48
2019-04-10T03:58:11.276Z,26.77
2019-04-10T04:00:44.526Z,22.77
2019-04-10T04:03:18.224Z,24.12
2019-04-10T04:05:53.034Z,27.35
2019-04-10T04:08:25.704Z,25.30
2019-04-10T04:10:59.433Z,23.95
2019-04-10T04:13:32.047Z,27.52
2019-04-10T04:16:04.666Z,23.05
2019-04-10T04:18:37.437Z,23.38
2019-04-10T04:21:10.243Z,24.20
2019-04-10T04:23:42.691Z,23.52
2019-04-10T04:26:15.360Z,24.12
2019-04-10T04:28:47.696Z,25.70
2019-04-10T04:31:20.243Z,22.02
2019-04-10T04:33:53.305Z,23.38
2019-04-10T04:36:26.725Z,25.35
2019-04-10T04:38:59.996Z,23.73
2019-04-10T04:41:34.629Z,23.42
2019-04-10T04:44:08.006Z,22.27
2019-04-10T04:46:40.799Z,20.08
2019-04-10T04:49:13.667Z,25.30
2019-04-10T04:51:46.347Z,26.93
2019-04-10T04:54:19.170Z,21.15
2019-04-10T04:56:52.928Z,22.32
2019-04-10T04:59:26.071Z,21.57
2019-04-10T05:01:58.468Z,19.15
2019-04-10T05:04:32.334Z,25.65
2019-04-10T05:07:04.800Z,22.48
2019-04-10T05:09:39.098Z,19.32
2019-04-10T05:12:11.337Z,24.10
2019-04-10T05:14:44.027Z,21.05
2019-04-10T05:17:17.982Z,21.20
2019-04-10T05:19:50.339Z,21.37
2019-04-10T05:22:24.374Z,21.93
2019-04-10T05:24:56.908Z,23.25
2019-04-10T05:27:30.934Z,19.65
2019-04-10T05:30:04.074Z,18.23
2019-04-10T05:32:37.584Z,20.05
2019-04-10T05:35:11.463Z,18.62
2019-04-10T05:37:43.838Z,19.48
2019-04-10T05:40:17.389Z,21.15
2019-04-10T05:42:50.153Z,23.55
2019-04-10T05:45:23.451Z,18.82
2019-04-10T05:47:56.956Z,19.37
2019-04-10T05:50:29.919Z,19.87
2019-04-10T05:53:02.397Z,18.42
2019-04-10T05:55:34.793Z,21.75
2019-04-10T05:58:07.357Z,20.32
2019-04-10T06:00:39.660Z,22.60
2019-04-10T06:03:12.373Z,19.92
2019-04-10T06:05:45.162Z,19.85
2019-04-10T06:08:18.130Z,20.88
2019-04-10T06:10:51.938Z,19.17
2019-04-10T06:13:25.605Z,20.75
2019-04-10T06:15:59.077Z,18.90
2019-04-10T06:18:31.762Z,19.87
2019-04-10T06:21:05.032Z,18.67
2019-04-10T06:23:39.215Z,19.45
2019-04-10T06:26:12.591Z,20.55
2019-04-10T06:28:45.081Z,19.32
2019-04-10T06:31:17.400Z,19.65
2019-04-10T06:33:50.569Z,22.42
2019-04-10T06:36:22.934Z,20.02
2019-04-10T06:38:55.437Z,23.50
2019-04-10T06:41:27.722Z,22.40
2019-04-10T06:44:00.229Z,23.90
2019-04-10T06:46:32.981Z,25.15
2019-04-10T06:49:05.636Z,21.25
2019-04-10T06:51:39.542Z,23.47
2019-04-10T06:54:12.934Z,19.62
2019-04-10T06:56:47.916Z,20.77
2019-04-10T06:59:19.199Z,19.02
2019-04-10T07:01:54.575Z,19.20
2019-04-10T07:04:26.539Z,20.37
2019-04-10T07:07:06.483Z,18.95
2019-04-10T07:09:33.707Z,18.62
2019-04-10T07:12:08.060Z,19.52
2019-04-10T07:14:44.059Z,21.48
2019-04-10T07:17:14.500Z,22.62
2019-04-10T07:19:47.301Z,18.48
2019-04-10T07:22:20.722Z,18.87
2019-04-10T07:24:54.363Z,16.95
2019-04-10T07:27:27.793Z,19.25
2019-04-10T07:30:01.479Z,18.15
2019-04-10T07:32:36.074Z,21.25
2019-04-10T07:35:09.102Z,18.17
2019-04-10T07:37:42.423Z,17.35
2019-04-10T07:40:16.375Z,17.20
2019-04-10T07:42:50.341Z,16.37
2019-04-10T07:45:26.373Z,16.48
2019-04-10T07:47:56.976Z,16.17
2019-04-10T07:50:30.288Z,20.43
2019-04-10T07:53:03.050Z,17.67
2019-04-10T07:55:35.523Z,20.57
2019-04-10T07:58:08.303Z,20.05
2019-04-10T08:00:40.815Z,18.10
2019-04-10T08:03:14.578Z,20.32
2019-04-10T08:05:48.124Z,19.65
2019-04-10T08:08:21.365Z,17.77
2019-04-10T08:10:55.039Z,16.87
2019-04-10T08:13:28.793Z,16.17
2019-04-10T08:16:01.473Z,18.15
2019-04-10T08:18:35.152Z,15.93
2019-04-10T08:21:07.668Z,18.52
2019-04-10T08:23:42.373Z,14.60
2019-04-10T08:26:16.266Z,17.87
2019-04-10T08:28:49.592Z,14.75
2019-04-10T08:31:23.874Z,15.72
2019-04-10T08:33:56.814Z,16.67
2019-04-10T08:36:29.888Z,14.75
2019-04-10T08:39:02.622Z,18.27
2019-04-10T08:41:35.769Z,16.12
2019-04-10T08:44:08.376Z,18.60
2019-04-10T08:46:41.944Z,16.52
2019-04-10T08:49:14.859Z,14.73
2019-04-10T08:51:48.008Z,16.62
2019-04-10T08:54:21.055Z,17.80
2019-04-10T08:56:54.692Z,16.40
2019-04-10T08:59:29.894Z,16.73
2019-04-10T09:02:02.272Z,17.50
2019-04-10T09:04:34.517Z,16.12
2019-04-10T09:07:08.208Z,15.88
2019-04-10T09:09:41.540Z,15.60
2019-04-10T09:12:13.892Z,17.92
2019-04-10T09:14:47.479Z,16.82
2019-04-10T09:17:19.954Z,16.90
2019-04-10T09:19:52.427Z,15.70
2019-04-10T09:22:25.128Z,16.65
2019-04-10T09:24:58.445Z,17.35
2019-04-10T09:27:30.988Z,18.17
2019-04-10T09:30:04.530Z,15.78
2019-04-10T09:32:39.000Z,15.93
2019-04-10T09:35:12.168Z,15.10
2019-04-10T09:37:44.938Z,18.05
2019-04-10T09:40:18.322Z,17.95
2019-04-10T09:42:50.775Z,15.80
2019-04-10T09:45:24.976Z,18.30
2019-04-10T09:47:58.335Z,20.40
2019-04-10T09:50:31.289Z,17.87
2019-04-10T09:53:04.139Z,19.07
2019-04-10T09:55:36.896Z,17.23
2019-04-10T09:58:09.316Z,18.05
2019-04-10T10:00:42.301Z,19.90
2019-04-10T10:03:15.267Z,16.12
2019-04-10T10:05:48.340Z,16.32
2019-04-10T10:08:20.656Z,19.48
2019-04-10T10:10:53.410Z,18.55
2019-04-10T10:13:25.850Z,16.87
2019-04-10T10:15:58.742Z,18.45
2019-04-10T10:18:31.299Z,15.68
2019-04-10T10:21:04.129Z,18.50
2019-04-10T10:23:37.979Z,17.50
2019-04-10T10:26:12.052Z,17.45
2019-04-10T10:28:44.987Z,20.02
2019-04-10T10:31:20.031Z,18.35
2019-04-10T10:33:54.976Z,18.57
2019-04-10T10:36:37.617Z,18.73
2019-04-10T10:39:06.920Z,16.35
2019-04-10T10:41:35.740Z,19.20
2019-04-10T10:44:08.965Z,18.57
2019-04-10T10:46:41.837Z,19.15
2019-04-10T10:49:14.711Z,25.08
2019-04-10T10:51:47.104Z,22.85
2019-04-10T10:54:19.487Z,21.77
2019-04-10T10:56:52.885Z,18.40
2019-04-10T10:59:27.238Z,21.25
2019-04-10T11:02:00.780Z,22.70
2019-04-10T11:04:33.639Z,23.20
2019-04-10T11:07:06.922Z,25.70
2019-04-10T11:09:40.652Z,25.15
2019-04-10T11:12:13.604Z,20.50
2019-04-10T11:14:48.053Z,26.77
2019-04-10T11:17:20.023Z,23.90
2019-04-10T11:19:53.258Z,23.05
2019-04-10T11:22:26.539Z,25.50
2019-04-10T11:25:00.193Z,30.37
2019-04-10T11:27:34.336Z,33.15
2019-04-10T11:30:09.993Z,31.30
2019-04-10T11:32:42.490Z,33.78
2019-04-10T11:35:15.590Z,45.88
2019-04-10T11:40:23.349Z,38.48
2019-04-10T11:42:57.486Z,36.35
2019-04-10T11:45:37.956Z,29.10
2019-04-10T11:48:03.744Z,31.95
2019-04-10T11:50:38.465Z,30.40
2019-04-10T11:53:10.772Z,27.82
2019-04-10T11:58:17.877Z,31.15
2019-04-10T12:00:52.671Z,29.92
2019-04-10T12:03:26.311Z,30.70
2019-04-10T12:05:59.851Z,31.73
2019-04-10T12:08:55.343Z,33.33
2019-04-10T12:11:08.699Z,26.95
2019-04-10T12:13:40.713Z,28.30
2019-04-10T12:16:14.598Z,30.95
2019-04-10T12:18:47.210Z,27.27
2019-04-10T12:21:20.630Z,30.02
2019-04-10T12:23:53.475Z,35.80
2019-04-10T12:26:25.951Z,33.38
2019-04-10T12:28:58.615Z,36.38
2019-04-10T12:31:33.059Z,35.65
2019-04-10T12:34:05.054Z,28.73
2019-04-10T12:36:38.494Z,30.08
2019-04-10T12:39:12.314Z,31.52
2019-04-10T12:41:45.803Z,32.93
2019-04-10T12:44:18.811Z,40.30
2019-04-10T12:46:51.224Z,37.10
2019-04-10T12:49:23.675Z,33.20
2019-04-10T12:51:56.326Z,30.88
2019-04-10T12:54:29.972Z,36.53
2019-04-10T12:57:02.449Z,32.88
2019-04-10T12:59:35.349Z,29.92
2019-04-10T13:02:10.435Z,35.73
2019-04-10T13:04:42.831Z,32.50
2019-04-10T13:07:15.789Z,27.82
2019-04-10T13:09:50.402Z,27.65
2019-04-10T13:12:23.648Z,25.27
2019-04-10T13:14:57.004Z,29.37
2019-04-10T13:17:30.926Z,29.65
2019-04-10T13:20:05.378Z,30.75
2019-04-10T13:22:38.131Z,36.48
2019-04-10T13:25:10.908Z,40.67
2019-04-10T13:27:43.373Z,39.53
2019-04-10T13:30:16.807Z,33.28
2019-04-10T13:32:50.090Z,29.72
2019-04-10T13:35:22.775Z,31.60
2019-04-10T13:37:55.227Z,27.05
2019-04-10T13:40:27.903Z,31.05
2019-04-10T13:43:01.216Z,29.00
2019-04-10T13:45:33.933Z,31.40
2019-04-10T13:48:06.216Z,28.62
2019-04-10T13:50:39.191Z,31.90
2019-04-10T13:53:13.417Z,29.55
2019-04-10T13:55:45.837Z,28.00
2019-04-10T13:58:19.237Z,31.00
2019-04-10T14:00:52.605Z,31.93
2019-04-10T14:03:26.066Z,26.82
2019-04-10T14:05:58.501Z,27.73
2019-04-10T14:08:48.318Z,25.68
2019-04-10T14:11:05.034Z,30.57
2019-04-10T14:13:37.995Z,29.65
2019-04-10T14:16:10.689Z,26.75
2019-04-10T14:18:45.573Z,26.68
2019-04-10T14:21:18.861Z,30.43
2019-04-10T14:23:51.423Z,30.12
2019-04-10T14:26:25.310Z,24.50
2019-04-10T14:28:59.651Z,27.27
2019-04-10T14:31:34.261Z,23.73
2019-04-10T14:34:07.219Z,26.97
2019-04-10T14:36:40.183Z,30.68
2019-04-10T14:39:18.419Z,28.83
2019-04-10T14:41:49.703Z,28.23
2019-04-10T14:44:23.310Z,27.55
2019-04-10T14:46:56.023Z,29.55
2019-04-10T14:49:29.302Z,24.72
2019-04-10T14:52:01.769Z,27.95
2019-04-10T14:54:35.610Z,29.10
2019-04-10T14:57:08.527Z,27.55
2019-04-10T14:59:42.140Z,28.00
2019-04-10T15:02:16.751Z,27.58
2019-04-10T15:04:49.039Z,26.70
2019-04-10T15:07:22.875Z,28.95
2019-04-10T15:09:55.958Z,28.55
2019-04-10T15:12:28.380Z,28.23
2019-04-10T15:15:01.709Z,27.80
2019-04-10T15:17:34.267Z,25.20
2019-04-10T15:20:07.563Z,25.65
2019-04-10T15:22:40.176Z,27.17
2019-04-10T15:25:15.061Z,23.85
2019-04-10T15:27:47.408Z,27.50
2019-04-10T15:30:20.234Z,32.28
2019-04-10T15:32:56.103Z,25.95
2019-04-10T15:35:29.368Z,24.80
2019-04-10T15:38:02.077Z,24.25
2019-04-10T15:40:35.093Z,25.37
2019-04-10T15:43:08.444Z,27.50
2019-04-10T15:45:41.724Z,22.67
2019-04-10T15:48:14.564Z,24.98
2019-04-10T15:50:48.084Z,23.80
2019-04-10T15:53:20.668Z,29.45
2019-04-10T15:55:53.713Z,25.92
2019-04-10T15:58:26.134Z,29.07
2019-04-10T16:00:59.414Z,30.12
2019-04-10T16:03:31.809Z,25.57
2019-04-10T16:06:04.459Z,26.33
2019-04-10T16:08:37.042Z,27.58
2019-04-10T16:11:11.849Z,27.48
2019-04-10T16:13:46.349Z,24.20
2019-04-10T16:16:20.338Z,28.70
2019-04-10T16:18:55.059Z,27.90
2019-04-10T16:21:27.749Z,28.70
2019-04-10T16:24:02.431Z,27.55
2019-04-10T16:26:35.714Z,26.97
2019-04-10T16:29:09.575Z,28.83
2019-04-10T16:31:42.197Z,27.90
2019-04-10T16:34:15.647Z,30.75
2019-04-10T16:36:48.353Z,26.70
2019-04-10T16:39:22.157Z,26.73
2019-04-10T16:41:54.977Z,28.73
2019-04-10T16:44:28.863Z,28.92
2019-04-10T16:47:01.587Z,26.75
2019-04-10T16:49:35.021Z,27.67
2019-04-10T16:52:07.507Z,27.55
2019-04-10T16:54:40.978Z,30.50
2019-04-10T16:57:14.161Z,32.88
2019-04-10T16:59:46.732Z,29.75
2019-04-10T17:02:20.001Z,30.62
2019-04-10T17:04:54.139Z,29.20
2019-04-10T17:07:27.266Z,27.50
2019-04-10T17:10:12.633Z,28.80
2019-04-10T17:12:33.844Z,28.38
2019-04-10T17:15:10.134Z,26.55
2019-04-10T17:17:42.522Z,25.15
2019-04-10T17:20:16.001Z,34.60
2019-04-10T17:22:49.678Z,35.03
2019-04-10T17:25:22.602Z,28.17
2019-04-10T17:27:56.211Z,28.40
2019-04-10T17:30:29.535Z,30.65
2019-04-10T17:33:02.842Z,30.17
2019-04-10T17:35:35.897Z,31.30
2019-04-10T17:38:09.808Z,27.17
2019-04-10T17:40:48.749Z,31.05
2019-04-10T17:43:18.928Z,26.93
2019-04-10T17:45:51.624Z,31.20
2019-04-10T17:48:25.645Z,27.82
2019-04-10T17:50:57.732Z,26.07
2019-04-10T17:53:31.407Z,27.93
2019-04-10T17:56:04.277Z,25.55
2019-04-10T17:58:37.869Z,26.07
2019-04-10T18:01:12.430Z,26.48
2019-04-10T18:03:51.584Z,25.05
2019-04-10T18:06:19.371Z,29.32
2019-04-10T18:08:52.180Z,28.98
2019-04-10T18:11:25.650Z,29.67
2019-04-10T18:13:58.623Z,25.05
2019-04-10T18:16:31.415Z,26.73
2019-04-10T18:19:04.402Z,25.77
2019-04-10T18:21:37.099Z,25.05
2019-04-10T18:24:09.447Z,26.45
2019-04-10T18:26:41.691Z,29.32
2019-04-10T18:29:14.890Z,29.98
2019-04-10T18:31:47.449Z,27.85
2019-04-10T18:34:19.727Z,28.90
2019-04-10T18:36:52.451Z,30.15
2019-04-10T18:39:26.113Z,28.87
2019-04-10T18:41:59.738Z,27.93
2019-04-10T18:44:33.111Z,26.65
2019-04-10T18:47:06.823Z,31.97
2019-04-10T18:49:39.902Z,27.50
2019-04-10T18:52:14.990Z,32.90
2019-04-10T18:54:47.887Z,29.45
2019-04-10T18:57:20.478Z,28.35
2019-04-10T18:59:54.363Z,27.42
2019-04-10T19:02:29.839Z,28.67
2019-04-10T19:05:03.453Z,32.45
2019-04-10T19:07:38.267Z,28.80
2019-04-10T19:10:12.777Z,38.10
2019-04-10T19:12:45.272Z,28.55
2019-04-10T19:15:17.878Z,33.92
2019-04-10T19:17:50.928Z,27.10
2019-04-10T19:20:23.368Z,27.50
2019-04-10T19:22:56.734Z,29.67
2019-04-10T19:25:30.226Z,31.95
2019-04-10T19:28:02.855Z,30.02
2019-04-10T19:30:37.304Z,30.55
2019-04-10T19:33:10.048Z,27.25
2019-04-10T19:35:43.426Z,29.42
2019-04-10T19:38:17.481Z,31.30
2019-04-10T19:40:50.423Z,34.40
2019-04-10T19:43:24.188Z,29.75
2019-04-10T19:45:58.691Z,29.12
2019-04-10T19:48:31.065Z,31.05
2019-04-10T19:51:03.951Z,27.67
2019-04-10T19:53:37.357Z,31.07
2019-04-10T19:56:10.880Z,29.05
2019-04-10T19:58:44.079Z,28.25
2019-04-10T20:01:17.033Z,26.95
2019-04-10T20:03:50.257Z,26.77
2019-04-10T20:06:23.829Z,31.68
2019-04-10T20:08:57.873Z,25.30
2019-04-10T20:11:37.767Z,31.02
2019-04-10T20:14:06.205Z,27.07
2019-04-10T20:16:39.562Z,23.57
2019-04-10T20:19:12.991Z,26.52
2019-04-10T20:21:45.638Z,22.37
2019-04-10T20:24:18.853Z,22.90
2019-04-10T20:26:51.805Z,24.25
2019-04-10T20:29:24.286Z,24.25
2019-04-10T20:31:58.446Z,27.22
2019-04-10T20:34:31.566Z,24.37
2019-04-10T20:37:08.407Z,28.30
2019-04-10T20:39:37.787Z,26.50
2019-04-10T20:42:10.423Z,28.52
2019-04-10T20:44:43.291Z,22.35
2019-04-10T20:47:17.134Z,22.98
2019-04-10T20:49:49.432Z,26.35
2019-04-10T20:52:22.093Z,23.57
2019-04-10T20:54:55.249Z,25.35
2019-04-10T20:57:28.378Z,30.55
2019-04-10T21:00:01.553Z,26.68
2019-04-10T21:02:34.782Z,26.85
2019-04-10T21:05:11.020Z,24.23
2019-04-10T21:07:43.935Z,24.35
2019-04-10T21:10:17.115Z,31.23
2019-04-10T21:12:50.381Z,26.10
2019-04-10T21:15:23.662Z,29.40
2019-04-10T21:17:57.035Z,26.25
2019-04-10T21:20:29.560Z,25.57
2019-04-10T21:23:03.399Z,30.97
2019-04-10T21:25:36.105Z,27.67
2019-04-10T21:28:09.689Z,27.75
2019-04-10T21:30:44.411Z,24.57
2019-04-10T21:33:18.425Z,27.20
2019-04-10T21:35:51.913Z,27.87
2019-04-10T21:38:24.562Z,32.30
2019-04-10T21:40:57.373Z,25.35
2019-04-10T21:43:30.286Z,25.92
2019-04-10T21:46:03.945Z,26.55
2019-04-10T21:48:37.105Z,28.70
2019-04-10T21:51:10.869Z,26.40
2019-04-10T21:53:45.081Z,27.27
2019-04-10T21:56:18.069Z,30.30
2019-04-10T21:58:50.760Z,26.02
2019-04-10T22:01:26.226Z,29.75
2019-04-10T22:04:00.544Z,28.55
2019-04-10T22:06:36.712Z,31.70
2019-04-10T22:09:10.966Z,30.08
2019-04-10T22:11:47.582Z,27.30
2019-04-10T22:14:21.418Z,29.20
2019-04-10T22:16:54.666Z,29.55
2019-04-10T22:19:28.342Z,28.98
2019-04-10T22:22:02.148Z,31.40
2019-04-10T22:24:36.233Z,31.45
2019-04-10T22:27:09.278Z,35.45
2019-04-10T22:29:42.674Z,27.22
2019-04-10T22:32:16.280Z,31.97
2019-04-10T22:34:48.899Z,31.45
2019-04-10T22:37:21.597Z,31.33
2019-04-10T22:39:54.654Z,33.73
2019-04-10T22:42:37.941Z,32.28
2019-04-10T22:45:02.458Z,32.20
2019-04-10T22:47:36.993Z,32.93
2019-04-10T22:50:10.612Z,31.60
2019-04-10T22:52:44.285Z,33.28
2019-04-10T22:55:18.133Z,31.57
2019-04-10T22:57:52.608Z,34.30
2019-04-10T23:00:28.009Z,30.30
2019-04-10T23:03:00.907Z,29.92
2019-04-10T23:05:34.331Z,33.15
2019-04-10T23:08:07.464Z,32.30
2019-04-10T23:10:39.680Z,31.25
2019-04-10T23:13:12.546Z,33.73
2019-04-10T23:15:44.855Z,32.83
2019-04-10T23:18:17.564Z,35.20
2019-04-10T23:20:50.263Z,36.83
2019-04-10T23:23:23.155Z,36.65
2019-04-10T23:25:56.416Z,36.65
2019-04-10T23:28:29.460Z,35.55
2019-04-10T23:31:03.528Z,35.83
2019-04-10T23:33:36.493Z,32.35
2019-04-10T23:36:09.695Z,37.67
2019-04-10T23:38:41.996Z,37.38
2019-04-10T23:41:14.330Z,35.75
2019-04-10T23:43:46.756Z,32.93
2019-04-10T23:46:20.078Z,39.33
2019-04-10T23:48:53.000Z,34.03
2019-04-10T23:51:25.577Z,32.70
2019-04-10T23:53:58.232Z,34.20
2019-04-10T23:56:31.517Z,34.35
2019-04-10T23:59:04.546Z,34.40
